sensor_id;sensor_type;location;lat;lon;timestamp;P1;durP1;ratioP1;P2;durP2;ratioP2
3543;SDS011;1786;52.870;9.578;2023-01-23T00:00:53;4.07;;;2.87;;
3543;SDS011;1786;52.870;9.578;2023-01-23T00:03:20;6.83;;;3.03;;
3543;SDS011;1786;52.870;9.578;2023-01-23T00:06:06;2.70;;;2.60;;
3543;SDS011;1786;52.870;9.578;2023-01-23T00:08:36;8.30;;;2.73;;
3543;SDS011;1786;52.870;9.578;2023-01-23T00:11:04;2.63;;;2.53;;
3543;SDS011;1786;52.870;9.578;2023-01-23T00:13:33;4.30;;;3.07;;
3543;SDS011;1786;52.870;9.578;2023-01-23T00:16:19;3.90;;;2.17;;
3543;SDS011;1786;52.870;9.578;2023-01-23T00:18:48;4.30;;;3.10;;
3543;SDS011;1786;52.870;9.578;2023-01-23T00:21:17;2.50;;;2.40;;
3543;SDS011;1786;52.870;9.578;2023-01-23T00:23:51;3.10;;;2.90;;
3543;SDS011;1786;52.870;9.578;2023-01-23T00:26:20;2.83;;;2.70;;
3543;SDS011;1786;52.870;9.578;2023-01-23T00:28:52;2.37;;;2.17;;
3543;SDS011;1786;52.870;9.578;2023-01-23T00:31:21;2.20;;;2.20;;
3543;SDS011;1786;52.870;9.578;2023-01-23T00:34:00;4.00;;;2.80;;
3543;SDS011;1786;52.870;9.578;2023-01-23T00:36:30;3.00;;;2.77;;
3543;SDS011;1786;52.870;9.578;2023-01-23T00:38:59;2.53;;;2.33;;
3543;SDS011;1786;52.870;9.578;2023-01-23T00:41:26;2.93;;;2.73;;
3543;SDS011;1786;52.870;9.578;2023-01-23T00:43:53;2.40;;;2.30;;
3543;SDS011;1786;52.870;9.578;2023-01-23T00:46:20;2.20;;;2.10;;
3543;SDS011;1786;52.870;9.578;2023-01-23T00:48:47;2.77;;;2.57;;
3543;SDS011;1786;52.870;9.578;2023-01-23T00:51:14;5.53;;;2.47;;
3543;SDS011;1786;52.870;9.578;2023-01-23T00:53:41;2.97;;;2.77;;
3543;SDS011;1786;52.870;9.578;2023-01-23T00:56:08;2.20;;;1.97;;
3543;SDS011;1786;52.870;9.578;2023-01-23T00:58:34;2.73;;;2.53;;
3543;SDS011;1786;52.870;9.578;2023-01-23T01:01:01;2.90;;;2.80;;
3543;SDS011;1786;52.870;9.578;2023-01-23T01:03:28;2.10;;;2.00;;
3543;SDS011;1786;52.870;9.578;2023-01-23T01:05:54;2.50;;;2.30;;
3543;SDS011;1786;52.870;9.578;2023-01-23T01:08:21;2.60;;;2.50;;
3543;SDS011;1786;52.870;9.578;2023-01-23T01:10:48;2.50;;;2.40;;
3543;SDS011;1786;52.870;9.578;2023-01-23T01:13:15;2.77;;;2.57;;
3543;SDS011;1786;52.870;9.578;2023-01-23T01:15:47;2.37;;;2.23;;
3543;SDS011;1786;52.870;9.578;2023-01-23T01:18:14;3.00;;;2.90;;
3543;SDS011;1786;52.870;9.578;2023-01-23T01:20:41;2.60;;;2.50;;
3543;SDS011;1786;52.870;9.578;2023-01-23T01:23:08;2.47;;;2.37;;
3543;SDS011;1786;52.870;9.578;2023-01-23T01:25:36;2.33;;;2.23;;
3543;SDS011;1786;52.870;9.578;2023-01-23T01:28:02;2.97;;;2.77;;
3543;SDS011;1786;52.870;9.578;2023-01-23T01:30:29;2.80;;;2.70;;
3543;SDS011;1786;52.870;9.578;2023-01-23T01:32:56;2.47;;;2.37;;
3543;SDS011;1786;52.870;9.578;2023-01-23T01:35:23;3.83;;;2.73;;
3543;SDS011;1786;52.870;9.578;2023-01-23T01:37:50;2.27;;;2.17;;
3543;SDS011;1786;52.870;9.578;2023-01-23T01:40:18;2.27;;;2.17;;
3543;SDS011;1786;52.870;9.578;2023-01-23T01:42:54;3.00;;;2.90;;
3543;SDS011;1786;52.870;9.578;2023-01-23T01:48:31;2.70;;;2.60;;
3543;SDS011;1786;52.870;9.578;2023-01-23T01:51:03;3.07;;;2.77;;
3543;SDS011;1786;52.870;9.578;2023-01-23T01:53:53;4.13;;;3.10;;
3543;SDS011;1786;52.870;9.578;2023-01-23T01:56:41;3.43;;;3.13;;
3543;SDS011;1786;52.870;9.578;2023-01-23T01:59:12;2.90;;;2.70;;
3543;SDS011;1786;52.870;9.578;2023-01-23T02:01:40;3.40;;;3.10;;
3543;SDS011;1786;52.870;9.578;2023-01-23T02:04:09;3.27;;;3.10;;
3543;SDS011;1786;52.870;9.578;2023-01-23T02:06:36;3.50;;;3.30;;
3543;SDS011;1786;52.870;9.578;2023-01-23T02:09:04;3.00;;;2.80;;
3543;SDS011;1786;52.870;9.578;2023-01-23T02:11:36;3.60;;;2.50;;
3543;SDS011;1786;52.870;9.578;2023-01-23T02:14:03;2.80;;;2.60;;
3543;SDS011;1786;52.870;9.578;2023-01-23T02:16:31;3.33;;;3.13;;
3543;SDS011;1786;52.870;9.578;2023-01-23T02:19:10;3.27;;;2.93;;
3543;SDS011;1786;52.870;9.578;2023-01-23T02:21:45;3.63;;;3.33;;
3543;SDS011;1786;52.870;9.578;2023-01-23T02:24:24;2.90;;;2.80;;
3543;SDS011;1786;52.870;9.578;2023-01-23T02:26:59;3.57;;;3.00;;
3543;SDS011;1786;52.870;9.578;2023-01-23T02:29:39;3.47;;;3.17;;
3543;SDS011;1786;52.870;9.578;2023-01-23T02:32:10;2.70;;;2.50;;
3543;SDS011;1786;52.870;9.578;2023-01-23T02:34:37;3.40;;;3.13;;
3543;SDS011;1786;52.870;9.578;2023-01-23T02:37:04;3.30;;;3.07;;
3543;SDS011;1786;52.870;9.578;2023-01-23T02:39:32;3.30;;;3.10;;
3543;SDS011;1786;52.870;9.578;2023-01-23T02:41:59;4.87;;;3.17;;
3543;SDS011;1786;52.870;9.578;2023-01-23T02:44:39;4.03;;;3.63;;
3543;SDS011;1786;52.870;9.578;2023-01-23T02:47:06;4.20;;;3.20;;
3543;SDS011;1786;52.870;9.578;2023-01-23T02:49:39;4.23;;;3.93;;
3543;SDS011;1786;52.870;9.578;2023-01-23T02:52:07;3.80;;;3.50;;
3543;SDS011;1786;52.870;9.578;2023-01-23T02:54:35;4.37;;;3.97;;
3543;SDS011;1786;52.870;9.578;2023-01-23T02:57:02;7.83;;;3.60;;
3543;SDS011;1786;52.870;9.578;2023-01-23T02:59:29;3.93;;;3.57;;
3543;SDS011;1786;52.870;9.578;2023-01-23T03:02:14;5.70;;;3.53;;
3543;SDS011;1786;52.870;9.578;2023-01-23T03:04:41;4.20;;;3.73;;
3543;SDS011;1786;52.870;9.578;2023-01-23T03:07:07;5.83;;;4.03;;
3543;SDS011;1786;52.870;9.578;2023-01-23T03:09:34;4.90;;;3.53;;
3543;SDS011;1786;52.870;9.578;2023-01-23T03:12:01;4.13;;;3.77;;
3543;SDS011;1786;52.870;9.578;2023-01-23T03:14:28;4.87;;;4.47;;
3543;SDS011;1786;52.870;9.578;2023-01-23T03:16:55;5.87;;;4.10;;
3543;SDS011;1786;52.870;9.578;2023-01-23T03:19:28;5.60;;;3.40;;
3543;SDS011;1786;52.870;9.578;2023-01-23T03:21:55;5.53;;;3.57;;
3543;SDS011;1786;52.870;9.578;2023-01-23T03:24:22;6.53;;;3.70;;
3543;SDS011;1786;52.870;9.578;2023-01-23T03:26:49;5.50;;;3.07;;
3543;SDS011;1786;52.870;9.578;2023-01-23T03:29:19;5.33;;;3.13;;
3543;SDS011;1786;52.870;9.578;2023-01-23T03:32:06;9.30;;;3.90;;
3543;SDS011;1786;52.870;9.578;2023-01-23T03:34:33;4.27;;;2.87;;
3543;SDS011;1786;52.870;9.578;2023-01-23T03:37:00;3.93;;;3.70;;
3543;SDS011;1786;52.870;9.578;2023-01-23T03:39:30;7.00;;;3.60;;
3543;SDS011;1786;52.870;9.578;2023-01-23T03:42:17;11.07;;;4.37;;
3543;SDS011;1786;52.870;9.578;2023-01-23T03:44:45;5.93;;;4.03;;
3543;SDS011;1786;52.870;9.578;2023-01-23T03:47:12;4.20;;;3.67;;
3543;SDS011;1786;52.870;9.578;2023-01-23T03:49:38;6.27;;;3.90;;
3543;SDS011;1786;52.870;9.578;2023-01-23T03:52:06;5.23;;;3.80;;
3543;SDS011;1786;52.870;9.578;2023-01-23T03:54:32;4.03;;;3.40;;
3543;SDS011;1786;52.870;9.578;2023-01-23T03:57:00;5.63;;;3.67;;
3543;SDS011;1786;52.870;9.578;2023-01-23T03:59:45;7.80;;;3.70;;
3543;SDS011;1786;52.870;9.578;2023-01-23T04:02:12;5.60;;;4.87;;
3543;SDS011;1786;52.870;9.578;2023-01-23T04:04:39;4.37;;;3.97;;
3543;SDS011;1786;52.870;9.578;2023-01-23T04:07:07;6.70;;;4.27;;
3543;SDS011;1786;52.870;9.578;2023-01-23T04:09:36;5.80;;;4.47;;
3543;SDS011;1786;52.870;9.578;2023-01-23T04:12:03;10.17;;;5.37;;
3543;SDS011;1786;52.870;9.578;2023-01-23T04:14:32;8.23;;;4.87;;
3543;SDS011;1786;52.870;9.578;2023-01-23T04:17:03;8.23;;;4.50;;
3543;SDS011;1786;52.870;9.578;2023-01-23T04:19:31;5.43;;;4.03;;
3543;SDS011;1786;52.870;9.578;2023-01-23T04:21:57;8.40;;;4.23;;
3543;SDS011;1786;52.870;9.578;2023-01-23T04:24:24;11.13;;;4.93;;
3543;SDS011;1786;52.870;9.578;2023-01-23T04:26:52;6.60;;;4.13;;
3543;SDS011;1786;52.870;9.578;2023-01-23T04:29:19;6.10;;;4.43;;
3543;SDS011;1786;52.870;9.578;2023-01-23T04:31:46;4.70;;;3.73;;
3543;SDS011;1786;52.870;9.578;2023-01-23T04:34:12;9.63;;;5.10;;
3543;SDS011;1786;52.870;9.578;2023-01-23T04:36:41;6.50;;;4.37;;
3543;SDS011;1786;52.870;9.578;2023-01-23T04:39:07;6.23;;;4.00;;
3543;SDS011;1786;52.870;9.578;2023-01-23T04:41:36;7.57;;;3.60;;
3543;SDS011;1786;52.870;9.578;2023-01-23T04:44:21;7.80;;;4.97;;
3543;SDS011;1786;52.870;9.578;2023-01-23T04:47:08;8.20;;;4.37;;
3543;SDS011;1786;52.870;9.578;2023-01-23T04:49:35;6.57;;;4.67;;
3543;SDS011;1786;52.870;9.578;2023-01-23T04:52:03;7.80;;;5.03;;
3543;SDS011;1786;52.870;9.578;2023-01-23T04:54:34;9.53;;;3.60;;
3543;SDS011;1786;52.870;9.578;2023-01-23T04:57:00;8.53;;;4.03;;
3543;SDS011;1786;52.870;9.578;2023-01-23T04:59:28;5.80;;;3.87;;
3543;SDS011;1786;52.870;9.578;2023-01-23T05:01:55;5.13;;;3.77;;
3543;SDS011;1786;52.870;9.578;2023-01-23T05:04:22;15.93;;;9.77;;
3543;SDS011;1786;52.870;9.578;2023-01-23T05:06:49;9.60;;;5.77;;
3543;SDS011;1786;52.870;9.578;2023-01-23T05:09:16;9.30;;;6.80;;
3543;SDS011;1786;52.870;9.578;2023-01-23T05:11:48;10.93;;;5.40;;
3543;SDS011;1786;52.870;9.578;2023-01-23T05:14:16;12.87;;;4.70;;
3543;SDS011;1786;52.870;9.578;2023-01-23T05:16:45;8.20;;;4.67;;
3543;SDS011;1786;52.870;9.578;2023-01-23T05:19:14;8.80;;;4.93;;
3543;SDS011;1786;52.870;9.578;2023-01-23T05:21:41;6.70;;;4.97;;
3543;SDS011;1786;52.870;9.578;2023-01-23T05:24:15;9.33;;;5.10;;
3543;SDS011;1786;52.870;9.578;2023-01-23T05:26:43;6.20;;;5.17;;
3543;SDS011;1786;52.870;9.578;2023-01-23T05:29:09;7.07;;;4.80;;
3543;SDS011;1786;52.870;9.578;2023-01-23T05:31:45;9.30;;;4.30;;
3543;SDS011;1786;52.870;9.578;2023-01-23T05:34:31;12.30;;;6.13;;
3543;SDS011;1786;52.870;9.578;2023-01-23T05:37:01;12.43;;;5.90;;
3543;SDS011;1786;52.870;9.578;2023-01-23T05:39:31;7.97;;;5.07;;
3543;SDS011;1786;52.870;9.578;2023-01-23T05:41:59;11.47;;;6.73;;
3543;SDS011;1786;52.870;9.578;2023-01-23T05:45:01;6.40;;;4.70;;
3543;SDS011;1786;52.870;9.578;2023-01-23T05:47:34;15.73;;;6.47;;
3543;SDS011;1786;52.870;9.578;2023-01-23T05:50:04;13.50;;;8.53;;
3543;SDS011;1786;52.870;9.578;2023-01-23T05:52:35;12.33;;;9.47;;
3543;SDS011;1786;52.870;9.578;2023-01-23T05:55:02;17.80;;;12.90;;
3543;SDS011;1786;52.870;9.578;2023-01-23T05:57:30;12.10;;;7.50;;
3543;SDS011;1786;52.870;9.578;2023-01-23T06:00:15;13.50;;;5.70;;
3543;SDS011;1786;52.870;9.578;2023-01-23T06:03:03;8.40;;;5.57;;
3543;SDS011;1786;52.870;9.578;2023-01-23T06:05:47;7.20;;;5.43;;
3543;SDS011;1786;52.870;9.578;2023-01-23T06:08:17;9.57;;;5.50;;
3543;SDS011;1786;52.870;9.578;2023-01-23T06:10:43;7.33;;;5.13;;
3543;SDS011;1786;52.870;9.578;2023-01-23T06:13:10;5.63;;;4.83;;
3543;SDS011;1786;52.870;9.578;2023-01-23T06:15:37;5.83;;;4.63;;
3543;SDS011;1786;52.870;9.578;2023-01-23T06:18:09;8.50;;;5.53;;
3543;SDS011;1786;52.870;9.578;2023-01-23T06:20:35;10.60;;;5.67;;
3543;SDS011;1786;52.870;9.578;2023-01-23T06:23:02;9.10;;;6.03;;
3543;SDS011;1786;52.870;9.578;2023-01-23T06:25:28;10.17;;;5.40;;
3543;SDS011;1786;52.870;9.578;2023-01-23T06:27:57;7.33;;;5.17;;
3543;SDS011;1786;52.870;9.578;2023-01-23T06:30:27;6.90;;;4.97;;
3543;SDS011;1786;52.870;9.578;2023-01-23T06:32:54;8.37;;;5.77;;
3543;SDS011;1786;52.870;9.578;2023-01-23T06:35:28;8.57;;;5.73;;
3543;SDS011;1786;52.870;9.578;2023-01-23T06:37:55;6.10;;;4.53;;
3543;SDS011;1786;52.870;9.578;2023-01-23T06:40:22;5.10;;;4.47;;
3543;SDS011;1786;52.870;9.578;2023-01-23T06:43:10;9.10;;;4.90;;
3543;SDS011;1786;52.870;9.578;2023-01-23T06:45:37;5.27;;;4.77;;
3543;SDS011;1786;52.870;9.578;2023-01-23T06:48:03;5.83;;;4.50;;
3543;SDS011;1786;52.870;9.578;2023-01-23T06:50:30;11.50;;;4.93;;
3543;SDS011;1786;52.870;9.578;2023-01-23T06:52:57;7.13;;;5.37;;
3543;SDS011;1786;52.870;9.578;2023-01-23T06:55:23;5.80;;;5.30;;
3543;SDS011;1786;52.870;9.578;2023-01-23T06:57:50;10.40;;;5.43;;
3543;SDS011;1786;52.870;9.578;2023-01-23T07:00:17;7.17;;;5.00;;
3543;SDS011;1786;52.870;9.578;2023-01-23T07:02:45;8.53;;;5.87;;
3543;SDS011;1786;52.870;9.578;2023-01-23T07:05:11;5.67;;;5.13;;
3543;SDS011;1786;52.870;9.578;2023-01-23T07:07:42;6.83;;;4.90;;
3543;SDS011;1786;52.870;9.578;2023-01-23T07:10:09;13.77;;;5.97;;
3543;SDS011;1786;52.870;9.578;2023-01-23T07:12:36;6.50;;;4.83;;
3543;SDS011;1786;52.870;9.578;2023-01-23T07:15:04;7.20;;;5.30;;
3543;SDS011;1786;52.870;9.578;2023-01-23T07:17:36;7.67;;;4.13;;
3543;SDS011;1786;52.870;9.578;2023-01-23T07:20:04;7.00;;;5.10;;
3543;SDS011;1786;52.870;9.578;2023-01-23T07:22:35;9.00;;;4.53;;
3543;SDS011;1786;52.870;9.578;2023-01-23T07:25:01;6.80;;;4.90;;
3543;SDS011;1786;52.870;9.578;2023-01-23T07:27:28;13.27;;;4.53;;
3543;SDS011;1786;52.870;9.578;2023-01-23T07:29:55;7.00;;;5.17;;
3543;SDS011;1786;52.870;9.578;2023-01-23T07:32:21;4.53;;;4.13;;
3543;SDS011;1786;52.870;9.578;2023-01-23T07:34:48;8.30;;;5.03;;
3543;SDS011;1786;52.870;9.578;2023-01-23T07:37:14;9.23;;;5.43;;
3543;SDS011;1786;52.870;9.578;2023-01-23T07:39:41;8.03;;;4.67;;
3543;SDS011;1786;52.870;9.578;2023-01-23T07:42:08;8.63;;;5.40;;
3543;SDS011;1786;52.870;9.578;2023-01-23T07:44:39;6.57;;;5.60;;
3543;SDS011;1786;52.870;9.578;2023-01-23T07:47:06;9.23;;;5.70;;
3543;SDS011;1786;52.870;9.578;2023-01-23T07:49:32;5.47;;;5.00;;
3543;SDS011;1786;52.870;9.578;2023-01-23T07:51:59;11.93;;;4.83;;
3543;SDS011;1786;52.870;9.578;2023-01-23T07:54:26;7.03;;;5.07;;
3543;SDS011;1786;52.870;9.578;2023-01-23T07:56:53;12.70;;;4.80;;
3543;SDS011;1786;52.870;9.578;2023-01-23T07:59:19;8.93;;;4.87;;
3543;SDS011;1786;52.870;9.578;2023-01-23T08:01:46;9.83;;;5.23;;
3543;SDS011;1786;52.870;9.578;2023-01-23T08:04:14;7.13;;;4.67;;
3543;SDS011;1786;52.870;9.578;2023-01-23T08:06:41;12.47;;;5.27;;
3543;SDS011;1786;52.870;9.578;2023-01-23T08:09:07;13.70;;;5.77;;
3543;SDS011;1786;52.870;9.578;2023-01-23T08:11:34;8.10;;;5.40;;
3543;SDS011;1786;52.870;9.578;2023-01-23T08:14:01;7.90;;;5.20;;
3543;SDS011;1786;52.870;9.578;2023-01-23T08:16:27;9.30;;;5.50;;
3543;SDS011;1786;52.870;9.578;2023-01-23T08:18:54;8.03;;;5.60;;
3543;SDS011;1786;52.870;9.578;2023-01-23T08:21:21;14.20;;;6.60;;
3543;SDS011;1786;52.870;9.578;2023-01-23T08:23:47;7.57;;;5.63;;
3543;SDS011;1786;52.870;9.578;2023-01-23T08:26:15;6.70;;;5.00;;
3543;SDS011;1786;52.870;9.578;2023-01-23T08:28:43;12.80;;;5.70;;
3543;SDS011;1786;52.870;9.578;2023-01-23T08:31:11;8.20;;;5.63;;
3543;SDS011;1786;52.870;9.578;2023-01-23T08:33:38;12.63;;;6.20;;
3543;SDS011;1786;52.870;9.578;2023-01-23T08:36:06;12.33;;;6.20;;
3543;SDS011;1786;52.870;9.578;2023-01-23T08:38:36;10.60;;;6.33;;
3543;SDS011;1786;52.870;9.578;2023-01-23T08:41:03;11.20;;;5.87;;
3543;SDS011;1786;52.870;9.578;2023-01-23T08:43:30;12.80;;;6.00;;
3543;SDS011;1786;52.870;9.578;2023-01-23T08:45:58;11.50;;;5.67;;
3543;SDS011;1786;52.870;9.578;2023-01-23T08:48:26;9.27;;;6.27;;
3543;SDS011;1786;52.870;9.578;2023-01-23T08:50:58;14.07;;;7.53;;
3543;SDS011;1786;52.870;9.578;2023-01-23T08:53:26;12.10;;;6.63;;
3543;SDS011;1786;52.870;9.578;2023-01-23T08:55:57;12.33;;;7.10;;
3543;SDS011;1786;52.870;9.578;2023-01-23T08:58:33;10.93;;;6.80;;
3543;SDS011;1786;52.870;9.578;2023-01-23T09:01:01;8.20;;;6.20;;
3543;SDS011;1786;52.870;9.578;2023-01-23T09:03:27;15.37;;;7.57;;
3543;SDS011;1786;52.870;9.578;2023-01-23T09:05:54;15.27;;;8.17;;
3543;SDS011;1786;52.870;9.578;2023-01-23T09:08:20;11.00;;;7.50;;
3543;SDS011;1786;52.870;9.578;2023-01-23T09:10:47;17.27;;;9.23;;
3543;SDS011;1786;52.870;9.578;2023-01-23T09:13:14;14.70;;;8.23;;
3543;SDS011;1786;52.870;9.578;2023-01-23T09:15:41;20.13;;;8.83;;
3543;SDS011;1786;52.870;9.578;2023-01-23T09:18:07;13.10;;;7.33;;
3543;SDS011;1786;52.870;9.578;2023-01-23T09:20:35;14.20;;;7.20;;
3543;SDS011;1786;52.870;9.578;2023-01-23T09:23:03;20.67;;;9.03;;
3543;SDS011;1786;52.870;9.578;2023-01-23T09:25:29;21.23;;;9.70;;
3543;SDS011;1786;52.870;9.578;2023-01-23T09:27:56;16.73;;;8.13;;
3543;SDS011;1786;52.870;9.578;2023-01-23T09:30:23;17.27;;;9.40;;
3543;SDS011;1786;52.870;9.578;2023-01-23T09:32:50;17.03;;;8.00;;
3543;SDS011;1786;52.870;9.578;2023-01-23T09:35:16;16.13;;;9.03;;
3543;SDS011;1786;52.870;9.578;2023-01-23T09:37:43;13.17;;;8.93;;
3543;SDS011;1786;52.870;9.578;2023-01-23T09:40:30;16.83;;;9.30;;
3543;SDS011;1786;52.870;9.578;2023-01-23T09:43:02;11.83;;;9.00;;
3543;SDS011;1786;52.870;9.578;2023-01-23T09:45:49;20.17;;;9.87;;
3543;SDS011;1786;52.870;9.578;2023-01-23T09:48:29;17.33;;;9.20;;
3543;SDS011;1786;52.870;9.578;2023-01-23T09:51:04;16.63;;;9.73;;
3543;SDS011;1786;52.870;9.578;2023-01-23T09:53:38;18.27;;;10.07;;
3543;SDS011;1786;52.870;9.578;2023-01-23T09:56:18;20.63;;;10.07;;
3543;SDS011;1786;52.870;9.578;2023-01-23T09:59:01;22.83;;;9.53;;
3543;SDS011;1786;52.870;9.578;2023-01-23T10:01:40;18.27;;;9.47;;
3543;SDS011;1786;52.870;9.578;2023-01-23T10:04:08;21.50;;;9.13;;
3543;SDS011;1786;52.870;9.578;2023-01-23T10:09:36;18.13;;;9.10;;
3543;SDS011;1786;52.870;9.578;2023-01-23T10:12:14;19.23;;;9.17;;
3543;SDS011;1786;52.870;9.578;2023-01-23T10:15:05;13.57;;;8.93;;
3543;SDS011;1786;52.870;9.578;2023-01-23T10:17:47;14.80;;;9.43;;
3543;SDS011;1786;52.870;9.578;2023-01-23T10:20:35;19.83;;;9.40;;
3543;SDS011;1786;52.870;9.578;2023-01-23T10:23:23;16.03;;;8.90;;
3543;SDS011;1786;52.870;9.578;2023-01-23T10:26:03;19.37;;;9.10;;
3543;SDS011;1786;52.870;9.578;2023-01-23T10:28:38;12.33;;;8.20;;
3543;SDS011;1786;52.870;9.578;2023-01-23T10:31:19;21.70;;;9.23;;
3543;SDS011;1786;52.870;9.578;2023-01-23T10:34:10;11.70;;;7.20;;
3543;SDS011;1786;52.870;9.578;2023-01-23T10:39:33;14.13;;;9.13;;
3543;SDS011;1786;52.870;9.578;2023-01-23T10:42:11;22.60;;;9.20;;
3543;SDS011;1786;52.870;9.578;2023-01-23T10:44:38;15.13;;;8.67;;
3543;SDS011;1786;52.870;9.578;2023-01-23T10:47:17;13.00;;;8.37;;
3543;SDS011;1786;52.870;9.578;2023-01-23T10:50:07;17.90;;;9.77;;
3543;SDS011;1786;52.870;9.578;2023-01-23T10:52:36;18.87;;;9.00;;
3543;SDS011;1786;52.870;9.578;2023-01-23T10:55:07;15.90;;;10.13;;
3543;SDS011;1786;52.870;9.578;2023-01-23T10:57:53;12.97;;;8.90;;
3543;SDS011;1786;52.870;9.578;2023-01-23T11:00:23;15.80;;;8.53;;
3543;SDS011;1786;52.870;9.578;2023-01-23T11:02:53;17.70;;;8.50;;
3543;SDS011;1786;52.870;9.578;2023-01-23T11:08:21;15.20;;;9.47;;
3543;SDS011;1786;52.870;9.578;2023-01-23T11:13:44;13.90;;;8.23;;
3543;SDS011;1786;52.870;9.578;2023-01-23T11:16:15;14.27;;;9.40;;
3543;SDS011;1786;52.870;9.578;2023-01-23T11:21:54;20.43;;;8.40;;
3543;SDS011;1786;52.870;9.578;2023-01-23T11:27:14;13.10;;;8.63;;
3543;SDS011;1786;52.870;9.578;2023-01-23T11:32:29;11.73;;;7.80;;
3543;SDS011;1786;52.870;9.578;2023-01-23T11:35:14;13.27;;;8.67;;
3543;SDS011;1786;52.870;9.578;2023-01-23T11:37:46;15.73;;;9.27;;
3543;SDS011;1786;52.870;9.578;2023-01-23T11:40:15;18.40;;;9.40;;
3543;SDS011;1786;52.870;9.578;2023-01-23T11:42:43;18.70;;;10.13;;
3543;SDS011;1786;52.870;9.578;2023-01-23T11:45:18;13.63;;;8.90;;
3543;SDS011;1786;52.870;9.578;2023-01-23T11:47:59;14.90;;;9.20;;
3543;SDS011;1786;52.870;9.578;2023-01-23T11:50:48;13.70;;;8.70;;
3543;SDS011;1786;52.870;9.578;2023-01-23T11:53:27;12.77;;;10.30;;
3543;SDS011;1786;52.870;9.578;2023-01-23T11:56:30;12.40;;;8.70;;
3543;SDS011;1786;52.870;9.578;2023-01-23T12:10:31;16.27;;;9.53;;
3543;SDS011;1786;52.870;9.578;2023-01-23T12:15:59;20.40;;;10.73;;
3543;SDS011;1786;52.870;9.578;2023-01-23T12:18:34;13.67;;;9.83;;
3543;SDS011;1786;52.870;9.578;2023-01-23T12:21:19;17.97;;;9.90;;
3543;SDS011;1786;52.870;9.578;2023-01-23T12:26:35;19.00;;;10.30;;
3543;SDS011;1786;52.870;9.578;2023-01-23T12:29:30;11.37;;;8.50;;
3543;SDS011;1786;52.870;9.578;2023-01-23T12:37:54;15.73;;;9.73;;
3543;SDS011;1786;52.870;9.578;2023-01-23T12:40:30;15.43;;;9.77;;
3543;SDS011;1786;52.870;9.578;2023-01-23T12:43:08;15.47;;;9.43;;
3543;SDS011;1786;52.870;9.578;2023-01-23T12:45:41;26.03;;;9.10;;
3543;SDS011;1786;52.870;9.578;2023-01-23T12:48:48;19.47;;;10.37;;
3543;SDS011;1786;52.870;9.578;2023-01-23T12:51:20;13.43;;;8.60;;
3543;SDS011;1786;52.870;9.578;2023-01-23T12:53:50;16.23;;;9.63;;
3543;SDS011;1786;52.870;9.578;2023-01-23T12:56:24;14.67;;;9.30;;
3543;SDS011;1786;52.870;9.578;2023-01-23T13:02:03;17.90;;;10.10;;
3543;SDS011;1786;52.870;9.578;2023-01-23T13:04:52;17.27;;;10.50;;
3543;SDS011;1786;52.870;9.578;2023-01-23T13:10:19;22.93;;;12.03;;
3543;SDS011;1786;52.870;9.578;2023-01-23T13:13:15;17.13;;;10.77;;
3543;SDS011;1786;52.870;9.578;2023-01-23T13:15:43;19.67;;;10.87;;
3543;SDS011;1786;52.870;9.578;2023-01-23T13:18:29;17.67;;;11.10;;
3543;SDS011;1786;52.870;9.578;2023-01-23T13:21:16;17.93;;;10.27;;
3543;SDS011;1786;52.870;9.578;2023-01-23T13:27:31;18.83;;;9.80;;
3543;SDS011;1786;52.870;9.578;2023-01-23T13:30:00;25.93;;;10.90;;
3543;SDS011;1786;52.870;9.578;2023-01-23T13:32:27;17.57;;;10.43;;
3543;SDS011;1786;52.870;9.578;2023-01-23T13:34:55;19.07;;;11.00;;
3543;SDS011;1786;52.870;9.578;2023-01-23T13:42:42;19.40;;;10.43;;
3543;SDS011;1786;52.870;9.578;2023-01-23T13:47:48;17.83;;;11.23;;
3543;SDS011;1786;52.870;9.578;2023-01-23T13:50:58;26.03;;;12.33;;
3543;SDS011;1786;52.870;9.578;2023-01-23T13:53:50;19.17;;;11.03;;
3543;SDS011;1786;52.870;9.578;2023-01-23T13:56:52;23.10;;;12.47;;
3543;SDS011;1786;52.870;9.578;2023-01-23T13:59:34;21.93;;;12.70;;
3543;SDS011;1786;52.870;9.578;2023-01-23T14:05:31;19.60;;;11.60;;
3543;SDS011;1786;52.870;9.578;2023-01-23T14:08:18;23.60;;;13.30;;
3543;SDS011;1786;52.870;9.578;2023-01-23T14:11:01;20.37;;;12.20;;
3543;SDS011;1786;52.870;9.578;2023-01-23T14:13:49;27.83;;;11.80;;
3543;SDS011;1786;52.870;9.578;2023-01-23T14:16:31;20.13;;;10.70;;
3543;SDS011;1786;52.870;9.578;2023-01-23T14:19:27;30.30;;;14.00;;
3543;SDS011;1786;52.870;9.578;2023-01-23T14:22:09;21.43;;;12.30;;
3543;SDS011;1786;52.870;9.578;2023-01-23T14:24:46;24.57;;;12.50;;
3543;SDS011;1786;52.870;9.578;2023-01-23T14:27:34;21.07;;;12.80;;
3543;SDS011;1786;52.870;9.578;2023-01-23T14:30:19;19.67;;;11.00;;
3543;SDS011;1786;52.870;9.578;2023-01-23T14:32:56;20.60;;;10.20;;
3543;SDS011;1786;52.870;9.578;2023-01-23T14:35:28;17.53;;;11.30;;
3543;SDS011;1786;52.870;9.578;2023-01-23T14:37:57;18.00;;;11.70;;
3543;SDS011;1786;52.870;9.578;2023-01-23T14:40:26;21.43;;;12.00;;
3543;SDS011;1786;52.870;9.578;2023-01-23T14:43:04;19.53;;;11.80;;
3543;SDS011;1786;52.870;9.578;2023-01-23T14:45:34;20.93;;;10.00;;
3543;SDS011;1786;52.870;9.578;2023-01-23T14:48:03;17.90;;;10.23;;
3543;SDS011;1786;52.870;9.578;2023-01-23T14:50:33;20.10;;;11.57;;
3543;SDS011;1786;52.870;9.578;2023-01-23T14:53:04;17.40;;;11.50;;
3543;SDS011;1786;52.870;9.578;2023-01-23T14:55:34;17.10;;;11.07;;
3543;SDS011;1786;52.870;9.578;2023-01-23T14:58:03;20.37;;;11.63;;
3543;SDS011;1786;52.870;9.578;2023-01-23T15:00:30;16.10;;;10.83;;
3543;SDS011;1786;52.870;9.578;2023-01-23T15:02:57;22.03;;;11.33;;
3543;SDS011;1786;52.870;9.578;2023-01-23T15:05:24;15.53;;;10.47;;
3543;SDS011;1786;52.870;9.578;2023-01-23T15:07:56;17.77;;;10.00;;
3543;SDS011;1786;52.870;9.578;2023-01-23T15:10:31;17.53;;;10.70;;
3543;SDS011;1786;52.870;9.578;2023-01-23T15:13:03;21.00;;;11.10;;
3543;SDS011;1786;52.870;9.578;2023-01-23T15:15:35;15.80;;;10.50;;
3543;SDS011;1786;52.870;9.578;2023-01-23T15:18:02;20.70;;;11.57;;
3543;SDS011;1786;52.870;9.578;2023-01-23T15:20:40;15.20;;;10.10;;
3543;SDS011;1786;52.870;9.578;2023-01-23T15:23:19;17.47;;;10.40;;
3543;SDS011;1786;52.870;9.578;2023-01-23T15:26:07;14.87;;;10.63;;
3543;SDS011;1786;52.870;9.578;2023-01-23T15:28:38;16.40;;;10.57;;
3543;SDS011;1786;52.870;9.578;2023-01-23T15:31:28;24.67;;;11.40;;
3543;SDS011;1786;52.870;9.578;2023-01-23T15:41:56;16.80;;;10.60;;
3543;SDS011;1786;52.870;9.578;2023-01-23T15:44:28;16.80;;;10.50;;
3543;SDS011;1786;52.870;9.578;2023-01-23T15:46:56;19.40;;;11.30;;
3543;SDS011;1786;52.870;9.578;2023-01-23T15:49:27;17.97;;;9.93;;
3543;SDS011;1786;52.870;9.578;2023-01-23T15:51:54;19.67;;;10.63;;
3543;SDS011;1786;52.870;9.578;2023-01-23T15:54:23;19.20;;;11.30;;
3543;SDS011;1786;52.870;9.578;2023-01-23T15:56:53;18.40;;;10.67;;
3543;SDS011;1786;52.870;9.578;2023-01-23T15:59:32;16.00;;;9.70;;
3543;SDS011;1786;52.870;9.578;2023-01-23T16:01:59;15.87;;;9.90;;
3543;SDS011;1786;52.870;9.578;2023-01-23T16:04:26;14.90;;;9.30;;
3543;SDS011;1786;52.870;9.578;2023-01-23T16:06:52;18.63;;;10.40;;
3543;SDS011;1786;52.870;9.578;2023-01-23T16:09:21;14.30;;;9.83;;
3543;SDS011;1786;52.870;9.578;2023-01-23T16:11:56;18.47;;;11.80;;
3543;SDS011;1786;52.870;9.578;2023-01-23T16:14:24;17.87;;;10.87;;
3543;SDS011;1786;52.870;9.578;2023-01-23T16:16:50;18.33;;;10.47;;
3543;SDS011;1786;52.870;9.578;2023-01-23T16:19:17;19.87;;;10.73;;
3543;SDS011;1786;52.870;9.578;2023-01-23T16:21:44;19.50;;;11.53;;
3543;SDS011;1786;52.870;9.578;2023-01-23T16:24:21;16.60;;;10.80;;
3543;SDS011;1786;52.870;9.578;2023-01-23T16:26:49;21.73;;;10.70;;
3543;SDS011;1786;52.870;9.578;2023-01-23T16:29:22;28.77;;;12.77;;
3543;SDS011;1786;52.870;9.578;2023-01-23T16:31:55;19.27;;;11.00;;
3543;SDS011;1786;52.870;9.578;2023-01-23T16:34:22;28.20;;;12.03;;
3543;SDS011;1786;52.870;9.578;2023-01-23T16:36:49;20.63;;;12.13;;
3543;SDS011;1786;52.870;9.578;2023-01-23T16:39:18;21.00;;;12.27;;
3543;SDS011;1786;52.870;9.578;2023-01-23T16:41:48;19.50;;;12.93;;
3543;SDS011;1786;52.870;9.578;2023-01-23T16:44:16;25.03;;;12.53;;
3543;SDS011;1786;52.870;9.578;2023-01-23T16:46:44;26.50;;;14.47;;
3543;SDS011;1786;52.870;9.578;2023-01-23T16:49:11;21.80;;;13.17;;